sensor_id;sensor_type;location;lat;lon;timestamp;P1;durP1;ratioP1;P2;durP2;ratioP2
70558;SDS011;58108;48.094;11.838;2023-02-28T00:00:01;5.63;;;1.60;;
70558;SDS011;58108;48.094;11.838;2023-02-28T00:02:26;5.03;;;1.33;;
70558;SDS011;58108;48.094;11.838;2023-02-28T00:04:51;4.77;;;1.50;;
70558;SDS011;58108;48.094;11.838;2023-02-28T00:07:26;4.70;;;1.48;;
70558;SDS011;58108;48.094;11.838;2023-02-28T00:09:51;5.80;;;1.80;;
70558;SDS011;58108;48.094;11.838;2023-02-28T00:12:16;5.80;;;1.30;;
70558;SDS011;58108;48.094;11.838;2023-02-28T00:14:41;6.17;;;1.60;;
70558;SDS011;58108;48.094;11.838;2023-02-28T00:17:06;4.37;;;1.50;;
70558;SDS011;58108;48.094;11.838;2023-02-28T00:19:32;5.57;;;1.60;;
70558;SDS011;58108;48.094;11.838;2023-02-28T00:21:57;6.00;;;1.50;;
70558;SDS011;58108;48.094;11.838;2023-02-28T00:24:22;6.17;;;1.53;;
70558;SDS011;58108;48.094;11.838;2023-02-28T00:26:47;5.17;;;1.40;;
70558;SDS011;58108;48.094;11.838;2023-02-28T00:29:13;5.23;;;1.47;;
70558;SDS011;58108;48.094;11.838;2023-02-28T00:31:38;5.20;;;1.50;;
70558;SDS011;58108;48.094;11.838;2023-02-28T00:34:03;4.33;;;1.40;;
70558;SDS011;58108;48.094;11.838;2023-02-28T00:36:28;4.47;;;1.30;;
70558;SDS011;58108;48.094;11.838;2023-02-28T00:38:54;5.00;;;1.40;;
70558;SDS011;58108;48.094;11.838;2023-02-28T00:41:19;6.30;;;1.67;;
70558;SDS011;58108;48.094;11.838;2023-02-28T00:43:44;4.27;;;1.10;;
70558;SDS011;58108;48.094;11.838;2023-02-28T00:46:09;4.77;;;1.23;;
70558;SDS011;58108;48.094;11.838;2023-02-28T00:48:35;4.87;;;1.53;;
70558;SDS011;58108;48.094;11.838;2023-02-28T00:51:00;5.83;;;1.50;;
70558;SDS011;58108;48.094;11.838;2023-02-28T00:53:26;8.18;;;1.45;;
70558;SDS011;58108;48.094;11.838;2023-02-28T00:55:51;5.10;;;1.40;;
70558;SDS011;58108;48.094;11.838;2023-02-28T00:58:16;5.30;;;1.40;;
70558;SDS011;58108;48.094;11.838;2023-02-28T01:00:41;4.93;;;1.43;;
70558;SDS011;58108;48.094;11.838;2023-02-28T01:03:06;4.83;;;1.17;;
70558;SDS011;58108;48.094;11.838;2023-02-28T01:05:32;5.77;;;1.73;;
70558;SDS011;58108;48.094;11.838;2023-02-28T01:07:57;5.87;;;1.70;;
70558;SDS011;58108;48.094;11.838;2023-02-28T01:10:22;7.10;;;2.07;;
70558;SDS011;58108;48.094;11.838;2023-02-28T01:12:47;5.33;;;1.80;;
70558;SDS011;58108;48.094;11.838;2023-02-28T01:15:13;7.00;;;1.70;;
70558;SDS011;58108;48.094;11.838;2023-02-28T01:17:38;4.23;;;1.40;;
70558;SDS011;58108;48.094;11.838;2023-02-28T01:20:03;5.63;;;1.07;;
70558;SDS011;58108;48.094;11.838;2023-02-28T01:22:28;4.10;;;1.13;;
70558;SDS011;58108;48.094;11.838;2023-02-28T01:24:54;5.10;;;1.30;;
70558;SDS011;58108;48.094;11.838;2023-02-28T01:27:19;5.30;;;1.37;;
70558;SDS011;58108;48.094;11.838;2023-02-28T01:29:44;5.50;;;1.30;;
70558;SDS011;58108;48.094;11.838;2023-02-28T01:32:09;4.50;;;1.37;;
70558;SDS011;58108;48.094;11.838;2023-02-28T01:34:35;7.23;;;1.50;;
70558;SDS011;58108;48.094;11.838;2023-02-28T01:37:00;4.27;;;1.13;;
70558;SDS011;58108;48.094;11.838;2023-02-28T01:39:26;4.80;;;1.27;;
70558;SDS011;58108;48.094;11.838;2023-02-28T01:41:51;5.47;;;1.33;;
70558;SDS011;58108;48.094;11.838;2023-02-28T01:44:55;5.20;;;1.40;;
70558;SDS011;58108;48.094;11.838;2023-02-28T01:47:16;6.55;;;1.90;;
70558;SDS011;58108;48.094;11.838;2023-02-28T01:49:41;7.43;;;1.57;;
70558;SDS011;58108;48.094;11.838;2023-02-28T01:52:07;6.25;;;1.60;;
70558;SDS011;58108;48.094;11.838;2023-02-28T01:54:33;4.60;;;1.13;;
70558;SDS011;58108;48.094;11.838;2023-02-28T01:57:01;6.70;;;1.50;;
70558;SDS011;58108;48.094;11.838;2023-02-28T01:59:35;6.63;;;1.60;;
70558;SDS011;58108;48.094;11.838;2023-02-28T02:02:03;6.65;;;1.50;;
70558;SDS011;58108;48.094;11.838;2023-02-28T02:04:32;5.53;;;1.80;;
70558;SDS011;58108;48.094;11.838;2023-02-28T02:07:00;5.10;;;1.40;;
70558;SDS011;58108;48.094;11.838;2023-02-28T02:09:25;5.33;;;1.60;;
70558;SDS011;58108;48.094;11.838;2023-02-28T02:11:50;5.83;;;1.77;;
70558;SDS011;58108;48.094;11.838;2023-02-28T02:29:48;6.28;;;1.38;;
70558;SDS011;58108;48.094;11.838;2023-02-28T02:32:36;3.58;;;1.25;;
70558;SDS011;58108;48.094;11.838;2023-02-28T02:35:10;4.32;;;1.25;;
70558;SDS011;58108;48.094;11.838;2023-02-28T02:37:40;6.20;;;1.33;;
70558;SDS011;58108;48.094;11.838;2023-02-28T02:42:41;3.38;;;1.05;;
70558;SDS011;58108;48.094;11.838;2023-02-28T02:45:56;4.68;;;1.42;;
70558;SDS011;58108;48.094;11.838;2023-02-28T02:48:00;6.70;;;1.23;;
70558;SDS011;58108;48.094;11.838;2023-02-28T02:50:27;5.57;;;1.15;;
70558;SDS011;58108;48.094;11.838;2023-02-28T02:52:55;5.57;;;1.03;;
70558;SDS011;58108;48.094;11.838;2023-02-28T02:55:21;3.33;;;0.93;;
70558;SDS011;58108;48.094;11.838;2023-02-28T02:57:48;4.35;;;1.33;;
70558;SDS011;58108;48.094;11.838;2023-02-28T03:00:18;4.47;;;1.17;;
70558;SDS011;58108;48.094;11.838;2023-02-28T03:02:45;6.57;;;1.42;;
70558;SDS011;58108;48.094;11.838;2023-02-28T03:05:14;5.35;;;1.58;;
70558;SDS011;58108;48.094;11.838;2023-02-28T03:07:42;5.53;;;1.67;;
70558;SDS011;58108;48.094;11.838;2023-02-28T03:12:54;6.05;;;1.45;;
70558;SDS011;58108;48.094;11.838;2023-02-28T03:15:26;7.00;;;2.23;;
70558;SDS011;58108;48.094;11.838;2023-02-28T03:17:59;7.53;;;1.88;;
70558;SDS011;58108;48.094;11.838;2023-02-28T03:28:03;6.33;;;1.70;;
70558;SDS011;58108;48.094;11.838;2023-02-28T03:30:38;6.72;;;1.63;;
70558;SDS011;58108;48.094;11.838;2023-02-28T03:33:14;7.25;;;1.90;;
70558;SDS011;58108;48.094;11.838;2023-02-28T03:35:45;6.75;;;1.90;;
70558;SDS011;58108;48.094;11.838;2023-02-28T03:38:14;5.75;;;1.58;;
70558;SDS011;58108;48.094;11.838;2023-02-28T03:40:45;7.30;;;1.60;;
70558;SDS011;58108;48.094;11.838;2023-02-28T03:43:12;5.82;;;1.50;;
70558;SDS011;58108;48.094;11.838;2023-02-28T03:45:38;4.90;;;1.77;;
70558;SDS011;58108;48.094;11.838;2023-02-28T03:48:08;7.60;;;2.00;;
70558;SDS011;58108;48.094;11.838;2023-02-28T03:50:40;5.68;;;1.95;;
70558;SDS011;58108;48.094;11.838;2023-02-28T03:53:10;8.17;;;2.07;;
70558;SDS011;58108;48.094;11.838;2023-02-28T03:55:41;7.47;;;1.92;;
70558;SDS011;58108;48.094;11.838;2023-02-28T03:58:21;5.72;;;1.80;;
70558;SDS011;58108;48.094;11.838;2023-02-28T04:00:49;7.75;;;1.80;;
70558;SDS011;58108;48.094;11.838;2023-02-28T04:03:15;7.40;;;2.20;;
70558;SDS011;58108;48.094;11.838;2023-02-28T04:05:50;7.53;;;2.30;;
70558;SDS011;58108;48.094;11.838;2023-02-28T04:08:16;8.10;;;2.30;;
70558;SDS011;58108;48.094;11.838;2023-02-28T04:10:41;7.07;;;1.80;;
70558;SDS011;58108;48.094;11.838;2023-02-28T04:13:10;6.13;;;1.75;;
70558;SDS011;58108;48.094;11.838;2023-02-28T04:15:35;8.90;;;2.40;;
70558;SDS011;58108;48.094;11.838;2023-02-28T04:18:01;6.82;;;2.10;;
70558;SDS011;58108;48.094;11.838;2023-02-28T04:20:27;8.32;;;2.42;;
70558;SDS011;58108;48.094;11.838;2023-02-28T04:22:52;7.20;;;1.93;;
70558;SDS011;58108;48.094;11.838;2023-02-28T04:25:18;11.90;;;2.80;;
70558;SDS011;58108;48.094;11.838;2023-02-28T04:27:43;8.30;;;2.67;;
70558;SDS011;58108;48.094;11.838;2023-02-28T04:30:09;8.93;;;2.70;;
70558;SDS011;58108;48.094;11.838;2023-02-28T04:32:37;8.73;;;2.75;;
70558;SDS011;58108;48.094;11.838;2023-02-28T04:35:03;9.95;;;2.63;;
70558;SDS011;58108;48.094;11.838;2023-02-28T04:37:28;9.23;;;2.00;;
70558;SDS011;58108;48.094;11.838;2023-02-28T04:39:57;7.40;;;2.50;;
70558;SDS011;58108;48.094;11.838;2023-02-28T04:42:22;6.97;;;2.53;;
70558;SDS011;58108;48.094;11.838;2023-02-28T04:44:50;8.05;;;2.40;;
70558;SDS011;58108;48.094;11.838;2023-02-28T04:47:15;9.10;;;2.40;;
70558;SDS011;58108;48.094;11.838;2023-02-28T04:49:40;6.37;;;2.07;;
70558;SDS011;58108;48.094;11.838;2023-02-28T04:52:06;9.70;;;2.33;;
70558;SDS011;58108;48.094;11.838;2023-02-28T04:54:32;9.40;;;2.80;;
70558;SDS011;58108;48.094;11.838;2023-02-28T04:56:57;8.57;;;2.90;;
70558;SDS011;58108;48.094;11.838;2023-02-28T04:59:23;10.20;;;2.60;;
70558;SDS011;58108;48.094;11.838;2023-02-28T05:01:48;7.00;;;2.63;;
70558;SDS011;58108;48.094;11.838;2023-02-28T05:04:13;10.18;;;2.85;;
70558;SDS011;58108;48.094;11.838;2023-02-28T05:06:39;10.00;;;3.05;;
70558;SDS011;58108;48.094;11.838;2023-02-28T05:09:04;9.47;;;2.83;;
70558;SDS011;58108;48.094;11.838;2023-02-28T05:11:30;10.63;;;2.80;;
70558;SDS011;58108;48.094;11.838;2023-02-28T05:13:59;10.20;;;2.80;;
70558;SDS011;58108;48.094;11.838;2023-02-28T05:16:25;9.32;;;2.53;;
70558;SDS011;58108;48.094;11.838;2023-02-28T05:18:50;11.77;;;3.43;;
70558;SDS011;58108;48.094;11.838;2023-02-28T05:21:21;9.57;;;2.93;;
70558;SDS011;58108;48.094;11.838;2023-02-28T05:23:48;9.23;;;3.20;;
70558;SDS011;58108;48.094;11.838;2023-02-28T05:26:13;10.07;;;2.93;;
70558;SDS011;58108;48.094;11.838;2023-02-28T05:28:39;10.67;;;2.93;;
70558;SDS011;58108;48.094;11.838;2023-02-28T05:31:04;12.90;;;3.80;;
70558;SDS011;58108;48.094;11.838;2023-02-28T05:33:29;11.03;;;3.60;;
70558;SDS011;58108;48.094;11.838;2023-02-28T05:35:54;10.80;;;3.43;;
70558;SDS011;58108;48.094;11.838;2023-02-28T05:38:20;11.38;;;3.83;;
70558;SDS011;58108;48.094;11.838;2023-02-28T05:40:45;10.60;;;3.80;;
70558;SDS011;58108;48.094;11.838;2023-02-28T05:43:11;11.90;;;3.30;;
70558;SDS011;58108;48.094;11.838;2023-02-28T05:45:36;12.57;;;3.43;;
70558;SDS011;58108;48.094;11.838;2023-02-28T05:48:02;9.98;;;3.53;;
70558;SDS011;58108;48.094;11.838;2023-02-28T05:50:27;11.60;;;3.38;;
70558;SDS011;58108;48.094;11.838;2023-02-28T05:52:52;13.95;;;4.38;;
70558;SDS011;58108;48.094;11.838;2023-02-28T05:55:18;16.08;;;4.70;;
70558;SDS011;58108;48.094;11.838;2023-02-28T05:57:43;13.00;;;4.63;;
70558;SDS011;58108;48.094;11.838;2023-02-28T06:00:09;13.00;;;3.73;;
70558;SDS011;58108;48.094;11.838;2023-02-28T06:02:34;14.18;;;4.70;;
70558;SDS011;58108;48.094;11.838;2023-02-28T06:05:00;14.63;;;4.73;;
70558;SDS011;58108;48.094;11.838;2023-02-28T06:07:25;11.73;;;3.47;;
70558;SDS011;58108;48.094;11.838;2023-02-28T06:09:50;15.53;;;4.60;;
70558;SDS011;58108;48.094;11.838;2023-02-28T06:12:18;17.70;;;5.20;;
70558;SDS011;58108;48.094;11.838;2023-02-28T06:14:43;14.77;;;5.20;;
70558;SDS011;58108;48.094;11.838;2023-02-28T06:17:09;16.83;;;5.80;;
70558;SDS011;58108;48.094;11.838;2023-02-28T06:19:36;20.73;;;5.83;;
70558;SDS011;58108;48.094;11.838;2023-02-28T06:22:03;17.77;;;5.90;;
70558;SDS011;58108;48.094;11.838;2023-02-28T06:24:29;16.77;;;4.80;;
70558;SDS011;58108;48.094;11.838;2023-02-28T06:26:55;18.20;;;5.80;;
70558;SDS011;58108;48.094;11.838;2023-02-28T06:29:20;12.33;;;4.77;;
70558;SDS011;58108;48.094;11.838;2023-02-28T06:31:45;14.20;;;4.37;;
70558;SDS011;58108;48.094;11.838;2023-02-28T06:34:11;18.38;;;6.22;;
70558;SDS011;58108;48.094;11.838;2023-02-28T06:36:37;21.37;;;6.57;;
70558;SDS011;58108;48.094;11.838;2023-02-28T06:39:02;19.27;;;7.33;;
70558;SDS011;58108;48.094;11.838;2023-02-28T06:41:27;20.53;;;6.43;;
70558;SDS011;58108;48.094;11.838;2023-02-28T06:43:53;19.87;;;7.00;;
70558;SDS011;58108;48.094;11.838;2023-02-28T06:46:18;21.38;;;7.47;;
70558;SDS011;58108;48.094;11.838;2023-02-28T06:48:44;18.52;;;6.38;;
70558;SDS011;58108;48.094;11.838;2023-02-28T06:51:13;23.47;;;8.37;;
70558;SDS011;58108;48.094;11.838;2023-02-28T06:53:39;22.15;;;6.97;;
70558;SDS011;58108;48.094;11.838;2023-02-28T06:56:05;19.80;;;7.43;;
70558;SDS011;58108;48.094;11.838;2023-02-28T06:58:31;18.75;;;7.03;;
70558;SDS011;58108;48.094;11.838;2023-02-28T07:00:56;23.27;;;7.97;;
70558;SDS011;58108;48.094;11.838;2023-02-28T07:03:22;21.43;;;6.87;;
70558;SDS011;58108;48.094;11.838;2023-02-28T07:05:48;19.08;;;7.03;;
70558;SDS011;58108;48.094;11.838;2023-02-28T07:08:13;19.70;;;7.60;;
70558;SDS011;58108;48.094;11.838;2023-02-28T07:10:38;20.57;;;8.37;;
70558;SDS011;58108;48.094;11.838;2023-02-28T07:13:04;23.25;;;8.32;;
70558;SDS011;58108;48.094;11.838;2023-02-28T07:15:29;19.77;;;6.73;;
70558;SDS011;58108;48.094;11.838;2023-02-28T07:17:55;21.07;;;7.07;;
70558;SDS011;58108;48.094;11.838;2023-02-28T07:20:21;21.88;;;7.07;;
70558;SDS011;58108;48.094;11.838;2023-02-28T07:22:46;21.57;;;7.33;;
70558;SDS011;58108;48.094;11.838;2023-02-28T07:25:16;19.60;;;7.90;;
70558;SDS011;58108;48.094;11.838;2023-02-28T07:27:42;18.43;;;6.37;;
70558;SDS011;58108;48.094;11.838;2023-02-28T07:30:07;20.37;;;7.00;;
70558;SDS011;58108;48.094;11.838;2023-02-28T07:32:32;23.73;;;7.73;;
70558;SDS011;58108;48.094;11.838;2023-02-28T07:34:58;23.17;;;8.43;;
70558;SDS011;58108;48.094;11.838;2023-02-28T07:37:23;21.70;;;7.37;;
70558;SDS011;58108;48.094;11.838;2023-02-28T07:39:48;23.27;;;8.70;;
70558;SDS011;58108;48.094;11.838;2023-02-28T07:42:13;23.03;;;8.13;;
70558;SDS011;58108;48.094;11.838;2023-02-28T07:44:39;20.47;;;7.33;;
70558;SDS011;58108;48.094;11.838;2023-02-28T07:47:09;20.23;;;7.90;;
70558;SDS011;58108;48.094;11.838;2023-02-28T07:49:35;24.90;;;9.25;;
70558;SDS011;58108;48.094;11.838;2023-02-28T07:52:01;20.30;;;7.63;;
70558;SDS011;58108;48.094;11.838;2023-02-28T07:54:26;22.67;;;8.60;;
70558;SDS011;58108;48.094;11.838;2023-02-28T07:56:51;21.47;;;8.27;;
70558;SDS011;58108;48.094;11.838;2023-02-28T07:59:16;24.80;;;9.03;;
70558;SDS011;58108;48.094;11.838;2023-02-28T08:01:42;21.77;;;7.90;;
70558;SDS011;58108;48.094;11.838;2023-02-28T08:04:09;22.00;;;8.40;;
70558;SDS011;58108;48.094;11.838;2023-02-28T08:06:34;16.43;;;6.60;;
70558;SDS011;58108;48.094;11.838;2023-02-28T08:09:00;19.77;;;7.13;;
70558;SDS011;58108;48.094;11.838;2023-02-28T08:11:25;22.07;;;7.00;;
70558;SDS011;58108;48.094;11.838;2023-02-28T08:13:50;20.57;;;7.73;;
70558;SDS011;58108;48.094;11.838;2023-02-28T08:16:15;18.97;;;7.23;;
70558;SDS011;58108;48.094;11.838;2023-02-28T08:18:46;18.75;;;6.88;;
70558;SDS011;58108;48.094;11.838;2023-02-28T08:21:12;23.60;;;8.67;;
70558;SDS011;58108;48.094;11.838;2023-02-28T08:23:37;22.87;;;8.57;;
70558;SDS011;58108;48.094;11.838;2023-02-28T08:26:03;24.85;;;8.82;;
70558;SDS011;58108;48.094;11.838;2023-02-28T08:28:28;19.60;;;7.53;;
70558;SDS011;58108;48.094;11.838;2023-02-28T08:30:54;20.27;;;7.77;;
70558;SDS011;58108;48.094;11.838;2023-02-28T08:33:19;22.00;;;7.90;;
70558;SDS011;58108;48.094;11.838;2023-02-28T08:35:45;21.90;;;7.53;;
70558;SDS011;58108;48.094;11.838;2023-02-28T08:38:10;18.37;;;6.67;;
70558;SDS011;58108;48.094;11.838;2023-02-28T08:40:35;17.27;;;5.47;;
70558;SDS011;58108;48.094;11.838;2023-02-28T08:43:00;19.23;;;7.30;;
70558;SDS011;58108;48.094;11.838;2023-02-28T08:45:25;22.27;;;8.97;;
70558;SDS011;58108;48.094;11.838;2023-02-28T08:47:51;21.77;;;8.60;;
70558;SDS011;58108;48.094;11.838;2023-02-28T08:50:17;22.05;;;8.48;;
70558;SDS011;58108;48.094;11.838;2023-02-28T08:52:43;21.90;;;7.80;;
70558;SDS011;58108;48.094;11.838;2023-02-28T08:55:08;23.67;;;8.20;;
70558;SDS011;58108;48.094;11.838;2023-02-28T08:57:34;20.10;;;7.57;;
70558;SDS011;58108;48.094;11.838;2023-02-28T08:59:59;21.80;;;8.17;;
70558;SDS011;58108;48.094;11.838;2023-02-28T09:02:24;18.63;;;6.47;;
70558;SDS011;58108;48.094;11.838;2023-02-28T09:04:50;23.13;;;8.80;;
70558;SDS011;58108;48.094;11.838;2023-02-28T09:07:15;22.10;;;7.97;;
70558;SDS011;58108;48.094;11.838;2023-02-28T09:09:40;22.50;;;7.80;;
70558;SDS011;58108;48.094;11.838;2023-02-28T09:12:18;21.17;;;8.10;;
70558;SDS011;58108;48.094;11.838;2023-02-28T09:14:43;18.25;;;7.15;;
70558;SDS011;58108;48.094;11.838;2023-02-28T09:17:09;21.13;;;6.93;;
70558;SDS011;58108;48.094;11.838;2023-02-28T09:19:34;18.23;;;7.67;;
70558;SDS011;58108;48.094;11.838;2023-02-28T09:21:59;22.33;;;8.83;;
70558;SDS011;58108;48.094;11.838;2023-02-28T09:24:24;22.13;;;8.00;;
70558;SDS011;58108;48.094;11.838;2023-02-28T09:26:50;22.50;;;8.07;;
70558;SDS011;58108;48.094;11.838;2023-02-28T09:29:15;21.80;;;9.00;;
70558;SDS011;58108;48.094;11.838;2023-02-28T09:31:41;20.23;;;7.30;;
70558;SDS011;58108;48.094;11.838;2023-02-28T09:34:06;19.57;;;7.50;;
70558;SDS011;58108;48.094;11.838;2023-02-28T09:36:32;20.33;;;8.25;;
70558;SDS011;58108;48.094;11.838;2023-02-28T09:38:58;19.80;;;7.80;;
70558;SDS011;58108;48.094;11.838;2023-02-28T09:41:24;23.93;;;8.33;;
70558;SDS011;58108;48.094;11.838;2023-02-28T09:43:52;21.33;;;8.48;;
70558;SDS011;58108;48.094;11.838;2023-02-28T09:48:53;21.48;;;8.38;;
70558;SDS011;58108;48.094;11.838;2023-02-28T09:51:33;21.47;;;9.00;;
70558;SDS011;58108;48.094;11.838;2023-02-28T09:54:00;24.58;;;8.75;;
70558;SDS011;58108;48.094;11.838;2023-02-28T09:56:28;21.50;;;7.83;;
70558;SDS011;58108;48.094;11.838;2023-02-28T09:59:01;17.60;;;7.38;;
70558;SDS011;58108;48.094;11.838;2023-02-28T10:03:56;24.13;;;8.67;;
70558;SDS011;58108;48.094;11.838;2023-02-28T10:06:32;24.50;;;9.00;;
70558;SDS011;58108;48.094;11.838;2023-02-28T10:09:03;20.95;;;8.60;;
70558;SDS011;58108;48.094;11.838;2023-02-28T10:11:29;17.13;;;6.50;;
70558;SDS011;58108;48.094;11.838;2023-02-28T10:16:38;21.60;;;9.27;;
70558;SDS011;58108;48.094;11.838;2023-02-28T10:19:06;19.50;;;7.97;;
70558;SDS011;58108;48.094;11.838;2023-02-28T10:21:42;20.67;;;9.07;;
70558;SDS011;58108;48.094;11.838;2023-02-28T10:24:28;16.47;;;5.93;;
70558;SDS011;58108;48.094;11.838;2023-02-28T10:26:56;20.52;;;8.82;;
70558;SDS011;58108;48.094;11.838;2023-02-28T10:29:24;21.50;;;7.85;;
70558;SDS011;58108;48.094;11.838;2023-02-28T10:31:49;22.73;;;7.80;;
70558;SDS011;58108;48.094;11.838;2023-02-28T10:34:14;19.27;;;7.53;;
70558;SDS011;58108;48.094;11.838;2023-02-28T10:36:40;20.13;;;8.20;;
70558;SDS011;58108;48.094;11.838;2023-02-28T10:39:53;19.73;;;6.60;;
70558;SDS011;58108;48.094;11.838;2023-02-28T10:41:55;20.65;;;7.57;;
70558;SDS011;58108;48.094;11.838;2023-02-28T10:44:21;16.47;;;6.43;;
70558;SDS011;58108;48.094;11.838;2023-02-28T10:46:47;20.43;;;7.77;;
70558;SDS011;58108;48.094;11.838;2023-02-28T10:49:26;20.90;;;8.13;;
70558;SDS011;58108;48.094;11.838;2023-02-28T10:51:52;20.88;;;8.00;;
70558;SDS011;58108;48.094;11.838;2023-02-28T10:54:19;20.07;;;7.43;;
70558;SDS011;58108;48.094;11.838;2023-02-28T10:57:04;17.63;;;7.53;;
70558;SDS011;58108;48.094;11.838;2023-02-28T10:59:30;23.33;;;9.68;;
70558;SDS011;58108;48.094;11.838;2023-02-28T11:01:56;18.27;;;7.63;;
70558;SDS011;58108;48.094;11.838;2023-02-28T11:09:23;19.67;;;7.13;;
70558;SDS011;58108;48.094;11.838;2023-02-28T11:11:50;20.63;;;8.50;;
70558;SDS011;58108;48.094;11.838;2023-02-28T11:14:19;18.67;;;6.65;;
70558;SDS011;58108;48.094;11.838;2023-02-28T11:16:45;22.50;;;9.20;;
70558;SDS011;58108;48.094;11.838;2023-02-28T11:19:16;19.20;;;8.00;;
70558;SDS011;58108;48.094;11.838;2023-02-28T11:21:45;17.75;;;7.47;;
70558;SDS011;58108;48.094;11.838;2023-02-28T11:24:21;18.67;;;7.78;;
70558;SDS011;58108;48.094;11.838;2023-02-28T11:26:48;17.83;;;7.67;;
70558;SDS011;58108;48.094;11.838;2023-02-28T11:32:28;21.25;;;8.02;;
70558;SDS011;58108;48.094;11.838;2023-02-28T11:34:37;19.08;;;8.35;;
70558;SDS011;58108;48.094;11.838;2023-02-28T11:37:03;13.73;;;5.83;;
70558;SDS011;58108;48.094;11.838;2023-02-28T11:39:32;14.90;;;6.97;;
70558;SDS011;58108;48.094;11.838;2023-02-28T11:42:04;17.83;;;7.22;;
70558;SDS011;58108;48.094;11.838;2023-02-28T11:44:36;19.20;;;7.40;;
70558;SDS011;58108;48.094;11.838;2023-02-28T11:47:07;16.50;;;7.20;;
70558;SDS011;58108;48.094;11.838;2023-02-28T11:49:48;14.17;;;6.03;;
70558;SDS011;58108;48.094;11.838;2023-02-28T11:52:20;15.98;;;7.07;;
70558;SDS011;58108;48.094;11.838;2023-02-28T12:02:28;16.13;;;8.10;;
70558;SDS011;58108;48.094;11.838;2023-02-28T12:05:01;18.50;;;8.20;;
70558;SDS011;58108;48.094;11.838;2023-02-28T12:10:19;16.63;;;8.25;;
70558;SDS011;58108;48.094;11.838;2023-02-28T12:25:43;13.98;;;8.13;;
70558;SDS011;58108;48.094;11.838;2023-02-28T12:28:12;15.73;;;8.27;;
70558;SDS011;58108;48.094;11.838;2023-02-28T12:30:41;14.07;;;7.68;;
70558;SDS011;58108;48.094;11.838;2023-02-28T12:33:09;21.25;;;8.40;;
70558;SDS011;58108;48.094;11.838;2023-02-28T12:35:41;17.15;;;8.70;;
70558;SDS011;58108;48.094;11.838;2023-02-28T12:38:22;15.68;;;8.18;;
70558;SDS011;58108;48.094;11.838;2023-02-28T12:40:53;11.55;;;6.85;;
70558;SDS011;58108;48.094;11.838;2023-02-28T12:43:20;16.13;;;8.35;;
70558;SDS011;58108;48.094;11.838;2023-02-28T12:45:58;14.85;;;8.23;;
70558;SDS011;58108;48.094;11.838;2023-02-28T12:48:30;15.90;;;8.90;;
70558;SDS011;58108;48.094;11.838;2023-02-28T12:50:56;17.05;;;8.52;;
70558;SDS011;58108;48.094;11.838;2023-02-28T12:56:08;14.53;;;7.63;;
70558;SDS011;58108;48.094;11.838;2023-02-28T12:58:36;17.77;;;9.77;;
70558;SDS011;58108;48.094;11.838;2023-02-28T13:01:17;16.08;;;9.18;;
70558;SDS011;58108;48.094;11.838;2023-02-28T13:04:16;13.82;;;7.80;;
70558;SDS011;58108;48.094;11.838;2023-02-28T13:09:29;14.48;;;8.30;;
70558;SDS011;58108;48.094;11.838;2023-02-28T13:11:55;15.50;;;8.77;;
70558;SDS011;58108;48.094;11.838;2023-02-28T13:14:23;13.20;;;8.48;;
70558;SDS011;58108;48.094;11.838;2023-02-28T13:19:20;16.17;;;8.80;;
70558;SDS011;58108;48.094;11.838;2023-02-28T13:21:48;17.23;;;9.27;;
70558;SDS011;58108;48.094;11.838;2023-02-28T13:24:36;15.47;;;8.63;;
70558;SDS011;58108;48.094;11.838;2023-02-28T13:34:36;15.18;;;8.60;;
70558;SDS011;58108;48.094;11.838;2023-02-28T13:47:24;15.80;;;8.48;;
70558;SDS011;58108;48.094;11.838;2023-02-28T13:49:52;15.98;;;8.88;;
70558;SDS011;58108;48.094;11.838;2023-02-28T13:52:19;15.05;;;8.13;;
70558;SDS011;58108;48.094;11.838;2023-02-28T13:55:11;15.68;;;8.70;;
70558;SDS011;58108;48.094;11.838;2023-02-28T14:05:16;13.00;;;7.13;;
70558;SDS011;58108;48.094;11.838;2023-02-28T14:07:49;13.18;;;7.32;;
70558;SDS011;58108;48.094;11.838;2023-02-28T14:13:01;23.70;;;7.88;;
70558;SDS011;58108;48.094;11.838;2023-02-28T14:18:17;12.43;;;6.65;;
70558;SDS011;58108;48.094;11.838;2023-02-28T14:20:43;13.32;;;6.72;;
70558;SDS011;58108;48.094;11.838;2023-02-28T14:25:40;14.13;;;7.60;;
70558;SDS011;58108;48.094;11.838;2023-02-28T14:34:12;14.43;;;7.05;;
70558;SDS011;58108;48.094;11.838;2023-02-28T14:36:41;14.07;;;6.82;;
70558;SDS011;58108;48.094;11.838;2023-02-28T14:39:07;14.83;;;6.87;;
70558;SDS011;58108;48.094;11.838;2023-02-28T14:41:37;13.52;;;6.45;;
70558;SDS011;58108;48.094;11.838;2023-02-28T14:44:21;13.68;;;7.10;;
70558;SDS011;58108;48.094;11.838;2023-02-28T14:46:48;14.82;;;7.82;;
70558;SDS011;58108;48.094;11.838;2023-02-28T14:49:18;14.10;;;7.18;;
70558;SDS011;58108;48.094;11.838;2023-02-28T14:51:45;13.67;;;7.07;;
70558;SDS011;58108;48.094;11.838;2023-02-28T14:54:13;15.60;;;6.93;;
70558;SDS011;58108;48.094;11.838;2023-02-28T14:56:39;13.88;;;7.10;;
70558;SDS011;58108;48.094;11.838;2023-02-28T14:59:05;15.13;;;6.80;;
70558;SDS011;58108;48.094;11.838;2023-02-28T15:01:30;15.15;;;6.85;;
70558;SDS011;58108;48.094;11.838;2023-02-28T15:03:59;16.33;;;7.20;;
70558;SDS011;58108;48.094;11.838;2023-02-28T15:06:26;15.95;;;7.75;;
70558;SDS011;58108;48.094;11.838;2023-02-28T15:11:55;17.35;;;6.47;;
70558;SDS011;58108;48.094;11.838;2023-02-28T15:14:21;16.97;;;6.47;;
70558;SDS011;58108;48.094;11.838;2023-02-28T15:16:48;10.70;;;6.22;;
70558;SDS011;58108;48.094;11.838;2023-02-28T15:19:23;12.32;;;6.30;;
70558;SDS011;58108;48.094;11.838;2023-02-28T15:21:51;13.63;;;5.90;;
70558;SDS011;58108;48.094;11.838;2023-02-28T15:26:49;11.30;;;5.65;;
70558;SDS011;58108;48.094;11.838;2023-02-28T15:29:17;12.57;;;5.43;;
70558;SDS011;58108;48.094;11.838;2023-02-28T15:31:45;11.00;;;5.55;;
70558;SDS011;58108;48.094;11.838;2023-02-28T15:34:21;11.93;;;5.80;;
70558;SDS011;58108;48.094;11.838;2023-02-28T15:36:47;13.48;;;5.90;;
70558;SDS011;58108;48.094;11.838;2023-02-28T15:39:20;12.55;;;5.95;;
70558;SDS011;58108;48.094;11.838;2023-02-28T15:41:46;13.25;;;6.10;;
70558;SDS011;58108;48.094;11.838;2023-02-28T15:44:24;13.88;;;6.18;;
70558;SDS011;58108;48.094;11.838;2023-02-28T15:46:55;13.73;;;5.73;;
70558;SDS011;58108;48.094;11.838;2023-02-28T15:49:21;13.23;;;5.65;;
70558;SDS011;58108;48.094;11.838;2023-02-28T15:51:48;13.13;;;5.82;;
70558;SDS011;58108;48.094;11.838;2023-02-28T15:57:13;12.43;;;5.70;;
70558;SDS011;58108;48.094;11.838;2023-02-28T15:59:38;15.23;;;5.65;;
70558;SDS011;58108;48.094;11.838;2023-02-28T16:04:35;14.27;;;5.70;;
70558;SDS011;58108;48.094;11.838;2023-02-28T16:07:02;14.50;;;5.60;;
70558;SDS011;58108;48.094;11.838;2023-02-28T16:09:28;15.15;;;5.53;;
70558;SDS011;58108;48.094;11.838;2023-02-28T16:11:55;16.50;;;6.17;;
70558;SDS011;58108;48.094;11.838;2023-02-28T16:14:22;16.67;;;6.43;;
70558;SDS011;58108;48.094;11.838;2023-02-28T16:16:50;17.85;;;6.65;;
70558;SDS011;58108;48.094;11.838;2023-02-28T16:19:16;18.70;;;6.18;;
70558;SDS011;58108;48.094;11.838;2023-02-28T16:21:42;17.60;;;6.60;;
70558;SDS011;58108;48.094;11.838;2023-02-28T16:24:07;15.97;;;6.47;;
70558;SDS011;58108;48.094;11.838;2023-02-28T16:26:32;15.30;;;6.40;;
70558;SDS011;58108;48.094;11.838;2023-02-28T16:28:59;15.40;;;5.85;;
70558;SDS011;58108;48.094;11.838;2023-02-28T16:31:24;14.27;;;6.00;;
70558;SDS011;58108;48.094;11.838;2023-02-28T16:33:49;16.53;;;6.17;;